Time;durP1;ratioP1;P1;durP2;ratioP2;P2;SDS_P1;SDS_P2;PMS_P1;PMS_P2;Temp;Humidity;BMP_temperature;BMP_pressure;BME280_temperature;BME280_humidity;BME280_pressure;Samples;Min_cycle;Max_cycle;Signal;HPM_P1;HPM_P2
2023/03/19 00:06:30;;;;;;;26.85;17.67;;;9.20;99.90;;;;;;5989363;23;20025;-96
2023/03/19 00:15:38;;;;;;;28.33;18.90;;;9.30;99.90;;;;;;5165849;23;20057;-94
2023/03/19 00:18:36;;;;;;;29.27;18.70;;;9.20;99.90;;;;;;5023807;28;20050;-95
2023/03/19 00:21:24;;;;;;;26.45;18.15;;;9.30;99.90;;;;;;5020729;28;20090;-95
2023/03/19 00:24:34;;;;;;;27.45;18.38;;;9.90;99.90;;;;;;5025592;28;20076;-96
2023/03/19 00:27:00;;;;;;;28.95;19.15;;;8.80;99.90;;;;;;5004698;28;20054;-96
2023/03/19 00:29:44;;;;;;;28.15;18.65;;;8.90;99.90;;;;;;5018335;28;20074;-96
2023/03/19 00:32:13;;;;;;;29.52;19.65;;;8.90;99.90;;;;;;4990962;28;20057;-96
2023/03/19 00:34:42;;;;;;;27.85;19.23;;;9.10;99.90;;;;;;4990883;28;20061;-95
2023/03/19 00:37:26;;;;;;;28.95;19.73;;;9.10;99.90;;;;;;4991915;28;20050;-96
2023/03/19 00:39:52;;;;;;;28.42;19.88;;;8.40;99.90;;;;;;5000968;28;20118;-96
2023/03/19 00:42:26;;;;;;;29.48;19.60;;;9.70;99.90;;;;;;5000333;28;20076;-95
2023/03/19 00:45:08;;;;;;;29.98;20.17;;;9.20;99.90;;;;;;4981164;28;20107;-94
2023/03/19 00:47:49;;;;;;;28.80;20.02;;;8.50;99.90;;;;;;4992022;28;20034;-95
2023/03/19 00:50:15;;;;;;;30.27;19.47;;;9.40;99.90;;;;;;5030342;28;20022;-95
2023/03/19 00:53:02;;;;;;;28.80;19.53;;;9.30;99.90;;;;;;5030084;28;20029;-94
2023/03/19 00:55:36;;;;;;;29.80;20.53;;;10.10;99.90;;;;;;5000211;28;20050;-95
2023/03/19 00:58:02;;;;;;;31.07;19.17;;;10.10;99.90;;;;;;4982472;28;20054;-94
2023/03/19 01:00:27;;;;;;;26.63;18.50;;;10.70;99.90;;;;;;4995484;28;20046;-94
2023/03/19 01:02:53;;;;;;;29.33;19.50;;;9.50;99.90;;;;;;5019060;28;20045;-95
2023/03/19 01:05:19;;;;;;;27.63;19.48;;;10.70;99.90;;;;;;5019863;28;20428;-96
2023/03/19 01:07:54;;;;;;;27.98;19.48;;;9.40;99.90;;;;;;5002705;28;20537;-95
2023/03/19 01:10:39;;;;;;;27.83;19.83;;;10.20;99.90;;;;;;5003308;28;20049;-95
2023/03/19 01:13:31;;;;;;;28.30;19.98;;;9.60;99.90;;;;;;5022237;28;20116;-96
2023/03/19 01:17:00;;;;;;;29.80;19.95;;;9.40;99.90;;;;;;5003467;28;20065;-94
2023/03/19 01:23:06;;;;;;;31.45;20.15;;;8.90;99.90;;;;;;5019734;28;20046;-95
2023/03/19 01:25:52;;;;;;;28.70;19.98;;;9.50;99.90;;;;;;4989777;28;20046;-95
2023/03/19 01:28:52;;;;;;;28.90;19.73;;;9.50;99.90;;;;;;5003878;28;20054;-95
2023/03/19 01:31:37;;;;;;;30.05;20.00;;;9.60;99.90;;;;;;5013844;28;20076;-94
2023/03/19 01:34:03;;;;;;;29.42;20.08;;;9.50;99.90;;;;;;5020161;28;20092;-95
2023/03/19 01:36:35;;;;;;;28.30;19.65;;;9.60;99.90;;;;;;5007250;28;20052;-95
2023/03/19 01:39:05;;;;;;;27.02;18.83;;;10.80;99.90;;;;;;5005278;28;20125;-95
2023/03/19 01:41:35;;;;;;;27.38;18.60;;;9.00;99.90;;;;;;5022413;28;20065;-96
2023/03/19 01:44:26;;;;;;;27.85;18.83;;;9.60;99.90;;;;;;5008847;23;20043;-95
2023/03/19 01:59:17;;;;;;;26.48;18.67;;;9.70;99.90;;;;;;5030120;23;20065;-96
2023/03/19 02:09:57;;;;;;;28.20;19.20;;;9.70;99.90;;;;;;5022156;28;20088;-94
2023/03/19 02:12:23;;;;;;;26.25;18.08;;;9.50;99.90;;;;;;5027980;28;20285;-95
2023/03/19 02:14:55;;;;;;;27.67;18.77;;;9.60;99.90;;;;;;5010671;28;20046;-96
2023/03/19 02:17:26;;;;;;;26.73;17.85;;;9.70;99.90;;;;;;5010484;28;20057;-95
2023/03/19 02:23:42;;;;;;;;;;;;;;;;;;;;;
2023/03/19 02:26:35;;;;;;;26.30;17.35;;;9.00;99.90;;;;;;5581071;23;20028;-95
2023/03/19 02:33:25;;;;;;;23.65;16.02;;;8.80;99.90;;;;;;5094660;23;20053;-96
2023/03/19 02:35:53;;;;;;;24.08;15.63;;;9.50;99.90;;;;;;4998687;28;20493;-94
2023/03/19 02:38:33;;;;;;;23.48;15.88;;;10.90;99.90;;;;;;4996508;28;20502;-94
2023/03/19 02:41:03;;;;;;;23.60;16.00;;;9.20;99.90;;;;;;4997523;28;20046;-95
2023/03/19 02:43:34;;;;;;;24.67;15.88;;;9.30;99.90;;;;;;4996990;28;20042;-94
2023/03/19 02:52:20;;;;;;;20.10;13.07;;;9.30;99.90;;;;;;5420202;23;20346;-95
2023/03/19 02:54:45;;;;;;;20.63;12.00;;;10.10;99.90;;;;;;4992870;28;20474;-96
2023/03/19 02:57:30;;;;;;;18.73;11.60;;;10.60;99.90;;;;;;4979403;28;20050;-95
2023/03/19 02:59:55;;;;;;;19.02;11.50;;;9.30;99.90;;;;;;4979327;28;20478;-95
2023/03/19 03:02:24;;;;;;;15.25;9.43;;;10.10;99.90;;;;;;4996932;28;20057;-95
2023/03/19 03:04:50;;;;;;;15.35;8.88;;;10.60;99.90;;;;;;5009091;28;20038;-95
2023/03/19 03:07:16;;;;;;;14.02;8.27;;;10.70;99.90;;;;;;5013412;28;20064;-96
2023/03/19 03:09:42;;;;;;;15.73;8.45;;;9.30;99.90;;;;;;4998875;28;20124;-95
2023/03/19 03:12:25;;;;;;;12.48;7.25;;;10.20;99.90;;;;;;5015618;28;20501;-95
2023/03/19 03:14:52;;;;;;;12.07;6.80;;;9.60;99.90;;;;;;4991773;28;20042;-95
2023/03/19 03:17:37;;;;;;;11.70;6.60;;;10.40;99.90;;;;;;4995621;28;20064;-95
2023/03/19 03:26:43;;;;;;;11.80;5.78;;;9.60;99.90;;;;;;5017467;28;20056;-95
2023/03/19 03:29:11;;;;;;;11.45;5.72;;;9.50;99.90;;;;;;5018298;28;20420;-95
2023/03/19 03:31:37;;;;;;;10.75;5.65;;;11.00;99.90;;;;;;4981324;28;20046;-95
2023/03/19 03:34:25;;;;;;;10.75;5.82;;;10.50;99.90;;;;;;4977057;28;20058;-96
2023/03/19 03:36:51;;;;;;;10.73;5.68;;;10.90;99.90;;;;;;5018255;28;20060;-95
2023/03/19 03:39:18;;;;;;;11.07;5.65;;;10.60;99.90;;;;;;5020694;28;20050;-96
2023/03/19 03:42:06;;;;;;;12.02;5.47;;;9.70;99.90;;;;;;5027568;28;20049;-95
2023/03/19 03:44:38;;;;;;;10.15;5.30;;;9.50;99.90;;;;;;5009163;28;20096;-96
2023/03/19 03:58:36;;;;;;;11.45;5.72;;;9.50;99.90;;;;;;5008756;28;20068;-96
2023/03/19 04:01:25;;;;;;;9.95;5.05;;;9.30;99.90;;;;;;5021240;28;20045;-96
2023/03/19 04:04:00;;;;;;;10.07;5.28;;;9.40;99.90;;;;;;5001409;28;20042;-96
2023/03/19 04:06:38;;;;;;;10.20;5.22;;;10.40;99.90;;;;;;5001070;28;20083;-96
2023/03/19 04:09:06;;;;;;;9.98;5.25;;;9.30;99.90;;;;;;5002094;23;20039;-95
2023/03/19 04:11:57;;;;;;;10.40;5.50;;;9.20;99.90;;;;;;4990335;23;20544;-95
2023/03/19 04:14:35;;;;;;;10.07;5.35;;;9.20;99.90;;;;;;4985430;28;20130;-95
2023/03/19 04:17:16;;;;;;;10.00;5.38;;;9.30;99.90;;;;;;4984945;28;20050;-96
2023/03/19 04:20:03;;;;;;;11.10;5.53;;;10.20;99.90;;;;;;4968466;28;20046;-95
2023/03/19 04:22:30;;;;;;;10.98;5.93;;;9.20;99.90;;;;;;4980419;28;20047;-96
2023/03/19 04:25:14;;;;;;;11.45;5.60;;;10.40;99.90;;;;;;4978316;28;20054;-96
2023/03/19 04:30:33;;;;;;;10.57;5.60;;;9.20;99.90;;;;;;4975831;28;20046;-96
2023/03/19 04:32:59;;;;;;;10.95;5.80;;;9.20;99.90;;;;;;4961472;28;20541;-95
2023/03/19 04:35:34;;;;;;;11.68;5.60;;;9.70;99.90;;;;;;4963148;28;20082;-96
2023/03/19 04:42:06;;;;;;;11.07;5.45;;;9.90;99.90;;;;;;5022236;28;20053;-96
2023/03/19 04:44:32;;;;;;;10.68;5.80;;;9.40;99.90;;;;;;5002489;28;20085;-95
2023/03/19 04:47:05;;;;;;;10.65;5.75;;;9.90;99.90;;;;;;5004990;28;20045;-96
2023/03/19 04:49:32;;;;;;;10.98;5.50;;;9.40;99.90;;;;;;5000788;28;20045;-96
2023/03/19 04:52:18;;;;;;;10.32;5.78;;;10.20;99.90;;;;;;5000105;28;20073;-96
2023/03/19 04:54:53;;;;;;;11.30;5.28;;;9.50;99.90;;;;;;5017229;28;20054;-96
2023/03/19 04:57:30;;;;;;;12.35;5.43;;;8.70;99.90;;;;;;5016494;28;20093;-95
2023/03/19 05:16:01;;;;;;;10.90;5.72;;;9.30;99.90;;;;;;6084066;23;20028;-96
2023/03/19 05:18:28;;;;;;;11.30;6.40;;;9.00;99.90;;;;;;4984147;28;20050;-96
2023/03/19 05:21:33;;;;;;;10.95;5.97;;;10.20;99.90;;;;;;4993936;28;20046;-96
2023/03/19 05:24:34;;;;;;;12.15;5.60;;;8.60;99.90;;;;;;5009093;28;20047;-96
2023/03/19 05:27:21;;;;;;;12.02;5.88;;;9.10;99.90;;;;;;5011843;28;20125;-96
2023/03/19 05:29:49;;;;;;;11.15;5.90;;;9.20;99.90;;;;;;4995469;28;20117;-96
2023/03/19 05:32:18;;;;;;;11.90;6.32;;;9.20;99.90;;;;;;4977849;28;20054;-96
2023/03/19 05:34:59;;;;;;;12.50;6.38;;;10.40;99.90;;;;;;4976708;28;20046;-96
2023/03/19 05:37:38;;;;;;;11.25;5.90;;;9.40;99.90;;;;;;4953366;23;20044;-96
2023/03/19 05:43:29;;;;;;;11.88;6.05;;;9.20;99.90;;;;;;4972479;28;20054;-95
2023/03/19 05:58:41;;;;;;;11.90;6.60;;;8.70;99.90;;;;;;4976234;28;20092;-85
2023/03/19 06:01:26;;;;;;;12.32;6.70;;;10.80;99.90;;;;;;4965870;28;20065;-84
2023/03/19 06:04:16;;;;;;;13.77;6.55;;;10.30;99.90;;;;;;4995680;28;20117;-84
2023/03/19 06:07:03;;;;;;;14.90;6.82;;;10.50;99.90;;;;;;4995354;28;20457;-84
2023/03/19 06:09:33;;;;;;;12.70;6.93;;;10.40;99.90;;;;;;4999761;28;20050;-84
2023/03/19 06:11:59;;;;;;;12.82;6.88;;;9.90;99.90;;;;;;4996594;28;20046;-83
2023/03/19 06:14:34;;;;;;;11.88;6.30;;;9.30;99.90;;;;;;4995652;28;20386;-83
2023/03/19 06:16:59;;;;;;;11.48;6.40;;;10.50;99.90;;;;;;4986230;23;20094;-84
2023/03/19 06:19:25;;;;;;;13.32;6.50;;;9.80;99.90;;;;;;4977849;28;20050;-84
2023/03/19 06:21:51;;;;;;;11.85;6.85;;;10.20;99.90;;;;;;4977947;28;20042;-84
2023/03/19 06:24:17;;;;;;;13.05;6.53;;;9.20;99.90;;;;;;4984204;28;20049;-85
2023/03/19 06:26:43;;;;;;;14.90;7.00;;;9.20;99.90;;;;;;5002132;28;20046;-84
2023/03/19 06:29:26;;;;;;;12.85;6.93;;;9.00;99.90;;;;;;4977024;28;20391;-84
2023/03/19 06:32:07;;;;;;;13.05;6.60;;;10.60;99.90;;;;;;4977001;28;20039;-84
2023/03/19 06:34:33;;;;;;;13.00;6.85;;;9.30;99.90;;;;;;5079402;23;20085;-84
2023/03/19 06:36:59;;;;;;;11.95;6.82;;;10.70;99.90;;;;;;4994219;28;20082;-84
2023/03/19 06:44:35;;;;;;;13.65;7.13;;;9.50;99.90;;;;;;5313470;23;20078;-84
2023/03/19 06:47:01;;;;;;;12.27;6.70;;;9.50;99.90;;;;;;5066122;23;20438;-85
2023/03/19 06:50:32;;;;;;;12.68;7.00;;;10.80;99.90;;;;;;4959690;28;20053;-85
2023/03/19 06:53:23;;;;;;;12.43;7.43;;;9.60;99.90;;;;;;4997138;23;20046;-85
2023/03/19 06:56:26;;;;;;;12.10;7.13;;;9.20;99.90;;;;;;4990762;28;20053;-84
2023/03/19 07:02:43;;;;;;;;;;;;;;;;;;;;;
2023/03/19 07:05:36;;;;;;;14.70;8.13;;;9.90;99.90;;;;;;4898869;29;20546;-85
2023/03/19 07:08:29;;;;;;;13.35;7.60;;;11.10;99.90;;;;;;4896740;29;20055;-85
2023/03/19 07:10:56;;;;;;;13.38;7.60;;;10.10;99.90;;;;;;4883637;29;20454;-84
2023/03/19 07:13:23;;;;;;;13.43;8.15;;;11.40;99.90;;;;;;4990190;23;20058;-84
2023/03/19 07:15:49;;;;;;;15.48;8.07;;;10.70;99.90;;;;;;5155184;23;20017;-84
2023/03/19 07:19:06;;;;;;;13.93;7.88;;;10.10;99.90;;;;;;4993931;28;20046;-84
2023/03/19 07:21:31;;;;;;;15.27;7.90;;;9.30;99.90;;;;;;4956788;28;20054;-84
2023/03/19 07:24:06;;;;;;;13.23;8.02;;;11.00;99.90;;;;;;5065588;23;20050;-84
2023/03/19 07:33:52;;;;;;;15.52;8.45;;;9.50;99.90;;;;;;4973440;28;20054;-84
2023/03/19 07:45:32;;;;;;;15.23;9.43;;;10.40;99.90;;;;;;5038700;23;20408;-84
2023/03/19 08:06:56;;;;;;;19.00;11.00;;;10.10;99.90;;;;;;4968828;28;20146;-85
2023/03/19 08:09:30;;;;;;;18.75;11.60;;;10.30;99.90;;;;;;4856613;29;20052;-84
2023/03/19 08:12:45;;;;;;;21.55;15.15;;;10.80;99.90;;;;;;4875453;29;20041;-85
2023/03/19 08:15:26;;;;;;;62.20;54.22;;;11.50;99.90;;;;;;4870768;29;20084;-84
2023/03/19 08:21:06;;;;;;;20.30;12.85;;;12.40;99.90;;;;;;4876753;29;20528;-84
2023/03/19 08:23:56;;;;;;;25.17;17.73;;;11.40;99.90;;;;;;4860729;29;20061;-84
2023/03/19 08:26:43;;;;;;;26.65;18.17;;;10.50;99.90;;;;;;4850756;29;20068;-85
2023/03/19 08:29:59;;;;;;;19.55;12.13;;;11.40;99.90;;;;;;4857194;29;20053;-86
2023/03/19 08:32:49;;;;;;;24.45;17.42;;;10.80;99.90;;;;;;4842010;29;20065;-86
2023/03/19 08:39:47;;;;;;;18.08;11.27;;;10.90;99.90;;;;;;4954129;29;20059;-91
2023/03/19 16:11:23;;;;;;;24.13;14.10;;;13.50;99.90;;;;;;5247019;23;20112;-82
2023/03/19 16:14:01;;;;;;;24.05;13.55;;;12.90;99.90;;;;;;4880042;29;20045;-84
2023/03/19 16:16:32;;;;;;;22.88;12.20;;;13.10;99.90;;;;;;4880648;29;20056;-83
2023/03/19 16:18:58;;;;;;;21.48;12.13;;;13.20;99.90;;;;;;4880576;29;20040;-83
2023/03/19 16:21:37;;;;;;;23.90;13.32;;;12.30;99.90;;;;;;4879831;29;20037;-83
2023/03/19 16:24:19;;;;;;;23.60;12.15;;;12.20;99.90;;;;;;4880449;29;20045;-83
2023/03/19 16:26:50;;;;;;;23.13;11.68;;;11.90;99.90;;;;;;4897240;29;20095;-83
2023/03/19 16:29:26;;;;;;;23.42;12.00;;;12.30;99.90;;;;;;4880252;29;20089;-83
2023/03/19 16:32:00;;;;;;;24.05;11.77;;;11.60;99.90;;;;;;4898001;29;20044;-83
2023/03/19 16:34:32;;;;;;;24.08;12.60;;;11.60;99.90;;;;;;4887953;29;20079;-84
2023/03/19 16:37:52;;;;;;;23.85;11.45;;;11.50;99.90;;;;;;4898746;29;20559;-86
2023/03/19 16:40:26;;;;;;;26.55;14.57;;;11.40;99.90;;;;;;4902962;29;20047;-87
2023/03/19 16:46:34;;;;;;;24.90;12.27;;;10.80;99.90;;;;;;5530398;23;20481;-84
2023/03/19 16:49:34;;;;;;;23.83;13.75;;;10.60;99.90;;;;;;4919260;29;20079;-87
2023/03/19 16:52:34;;;;;;;25.67;15.43;;;10.80;99.90;;;;;;4823543;29;20064;-85
2023/03/19 17:02:24;;;;;;;26.65;13.00;;;10.50;99.90;;;;;;4878489;29;20064;-86
2023/03/19 17:13:26;;;;;;;28.25;15.40;;;10.60;99.90;;;;;;5476531;23;20525;-84
2023/03/19 17:16:04;;;;;;;42.47;23.60;;;10.60;99.90;;;;;;4899215;29;20096;-86
2023/03/19 17:18:41;;;;;;;33.67;20.05;;;10.50;99.90;;;;;;4896794;29;20052;-87
2023/03/19 17:25:00;;;;;;;31.20;16.00;;;10.50;99.90;;;;;;4896538;29;20076;-85
2023/03/19 17:27:28;;;;;;;29.65;17.02;;;10.30;99.90;;;;;;4897810;29;20488;-85
2023/03/19 17:29:54;;;;;;;29.38;14.20;;;11.50;99.90;;;;;;4900788;29;20036;-85
2023/03/19 17:32:45;;;;;;;31.55;15.10;;;11.50;99.90;;;;;;4893036;29;20055;-85
2023/03/19 17:35:24;;;;;;;30.80;15.98;;;10.40;99.90;;;;;;4904854;29;20048;-85
2023/03/19 17:41:17;;;;;;;25.70;12.52;;;10.30;99.90;;;;;;4927546;23;20858;-84
2023/03/19 17:56:29;;;;;;;31.90;15.18;;;10.20;99.90;;;;;;1310858;23;20321;-84
2023/03/19 17:59:01;;;;;;;27.30;12.18;;;10.10;99.90;;;;;;4907396;29;20147;-86
2023/03/19 18:01:37;;;;;;;29.23;12.75;;;11.50;99.90;;;;;;4926295;29;20115;-89
2023/03/19 18:04:18;;;;;;;28.17;12.93;;;11.20;99.90;;;;;;4912372;29;20115;-89
2023/03/19 18:06:55;;;;;;;28.58;13.30;;;9.50;99.90;;;;;;4905479;29;20056;-88
2023/03/19 18:09:41;;;;;;;28.60;14.05;;;10.70;99.90;;;;;;4920685;29;20062;-89
2023/03/19 18:20:55;;;;;;;30.45;13.32;;;9.90;99.90;;;;;;4883548;29;20091;-89
2023/03/19 18:23:23;;;;;;;31.02;14.60;;;10.30;99.90;;;;;;4899352;29;20048;-90
2023/03/19 18:26:04;;;;;;;32.47;14.45;;;11.40;99.90;;;;;;4886117;29;20075;-89
2023/03/19 18:28:32;;;;;;;31.38;14.70;;;10.30;99.90;;;;;;4899819;29;20048;-91
2023/03/19 18:31:01;;;;;;;34.28;15.80;;;9.70;99.90;;;;;;4883132;29;20056;-90
2023/03/19 18:33:33;;;;;;;41.10;26.30;;;11.30;99.90;;;;;;4883108;29;20481;-90
2023/03/19 18:39:48;;;;;;;35.05;19.15;;;10.30;99.90;;;;;;4911012;23;20055;-96
2023/03/19 18:55:32;;;;;;;36.63;16.95;;;10.30;99.90;;;;;;5217851;23;20091;-96
2023/03/19 19:58:32;;;;;;;21.55;11.65;;;9.90;99.90;;;;;;4335726;23;20115;-92
2023/03/19 20:01:00;;;;;;;21.42;11.13;;;9.80;99.90;;;;;;4888730;29;20049;-93
2023/03/19 20:04:09;;;;;;;22.10;12.63;;;10.20;99.90;;;;;;5117495;23;20042;-93
2023/03/19 20:06:35;;;;;;;24.70;12.00;;;9.90;99.90;;;;;;5114478;23;21488;-93
2023/03/19 20:09:01;;;;;;;25.92;12.80;;;10.80;99.90;;;;;;4913887;29;20044;-93
2023/03/19 20:38:01;;;;;;;26.40;13.60;;;9.60;99.90;;;;;;5421578;23;20056;-91
2023/03/19 20:41:30;;;;;;;25.73;13.65;;;9.50;99.90;;;;;;4899953;29;20055;-91
2023/03/19 20:44:47;;;;;;;27.55;14.75;;;9.00;99.90;;;;;;4899062;29;20099;-91
2023/03/19 22:17:01;;;;;;;19.25;9.00;;;8.90;99.90;;;;;;4856187;23;20056;-92
2023/03/19 22:20:31;;;;;;;14.10;7.05;;;8.10;99.90;;;;;;4864280;29;20047;-90
2023/03/19 22:33:53;;;;;;;15.57;7.85;;;9.00;99.90;;;;;;4876044;29;20068;-92
2023/03/19 22:40:31;;;;;;;16.33;7.18;;;8.60;99.90;;;;;;4807599;29;20526;-90
2023/03/19 22:49:23;;;;;;;14.27;7.03;;;8.10;99.90;;;;;;4899350;29;20453;-93
2023/03/19 22:52:21;;;;;;;15.40;7.10;;;7.90;99.90;;;;;;4883534;29;20056;-93
2023/03/19 22:54:46;;;;;;;13.75;6.90;;;8.70;99.90;;;;;;4882450;29;20072;-93
2023/03/19 22:57:24;;;;;;;16.95;7.25;;;8.60;99.90;;;;;;5033670;23;20044;-93
2023/03/19 22:59:56;;;;;;;15.45;7.35;;;9.70;99.90;;;;;;4919143;29;20085;-93
2023/03/19 23:06:36;;;;;;;15.02;7.00;;;8.70;99.90;;;;;;4917616;29;20068;-93
2023/03/19 23:09:23;;;;;;;15.60;7.70;;;8.70;99.90;;;;;;4900736;29;20047;-93
2023/03/19 23:12:02;;;;;;;15.18;7.65;;;9.30;99.90;;;;;;4901636;29;20176;-94
2023/03/19 23:15:27;;;;;;;16.30;7.57;;;8.60;99.90;;;;;;4905274;29;20102;-93
2023/03/19 23:18:02;;;;;;;;;;;8.70;99.90;;;;;;4863609;29;20049;-93
2023/03/19 23:20:31;;;;;;;17.63;7.82;;;8.40;99.90;;;;;;4865946;29;19975;-93
2023/03/19 23:23:36;;;;;;;16.63;7.85;;;9.80;99.90;;;;;;4900836;29;20408;-93
2023/03/19 23:26:41;;;;;;;;;;;9.80;99.90;;;;;;4919145;29;20039;-95
2023/03/19 23:44:20;;;;;;;;;;;8.50;99.90;;;;;;4921097;23;20060;-93
2023/03/19 23:47:26;;;;;;;15.85;8.18;;;8.40;99.90;;;;;;4919148;29;19923;-93
2023/03/19 23:49:55;;;;;;;15.13;7.15;;;7.90;99.90;;;;;;4916878;29;20052;-93
2023/03/19 23:56:03;;;;;;;15.70;7.90;;;8.50;99.90;;;;;;4898496;29;20056;-92
2023/03/19 23:58:39;;;;;;;15.60;7.88;;;9.50;99.90;;;;;;4899030;29;20104;-94
